sensor_id;sensor_type;location;lat;lon;timestamp;P1;durP1;ratioP1;P2;durP2;ratioP2
82248;SDS011;71851;49.092;18.918;2024-03-08T00:02:39;22.95;;;10.88;;
82248;SDS011;71851;49.092;18.918;2024-03-08T00:05:41;23.85;;;11.00;;
82248;SDS011;71851;49.092;18.918;2024-03-08T00:08:42;23.95;;;10.80;;
82248;SDS011;71851;49.092;18.918;2024-03-08T00:11:42;21.00;;;11.07;;
82248;SDS011;71851;49.092;18.918;2024-03-08T00:14:43;22.70;;;10.43;;
82248;SDS011;71851;49.092;18.918;2024-03-08T00:17:44;22.52;;;12.25;;
82248;SDS011;71851;49.092;18.918;2024-03-08T00:20:46;21.27;;;10.80;;
82248;SDS011;71851;49.092;18.918;2024-03-08T00:23:46;23.33;;;10.82;;
82248;SDS011;71851;49.092;18.918;2024-03-08T00:26:47;18.40;;;10.77;;
82248;SDS011;71851;49.092;18.918;2024-03-08T00:29:48;19.05;;;9.90;;
82248;SDS011;71851;49.092;18.918;2024-03-08T00:32:48;21.95;;;11.07;;
82248;SDS011;71851;49.092;18.918;2024-03-08T00:35:49;22.08;;;11.48;;
82248;SDS011;71851;49.092;18.918;2024-03-08T00:38:49;21.42;;;10.88;;
82248;SDS011;71851;49.092;18.918;2024-03-08T00:41:49;21.00;;;10.43;;
82248;SDS011;71851;49.092;18.918;2024-03-08T00:44:50;20.33;;;10.52;;
82248;SDS011;71851;49.092;18.918;2024-03-08T00:47:51;22.48;;;10.50;;
82248;SDS011;71851;49.092;18.918;2024-03-08T00:50:51;20.05;;;10.73;;
82248;SDS011;71851;49.092;18.918;2024-03-08T00:53:52;21.85;;;10.48;;
82248;SDS011;71851;49.092;18.918;2024-03-08T00:56:53;18.65;;;9.95;;
82248;SDS011;71851;49.092;18.918;2024-03-08T00:59:53;20.95;;;12.20;;
82248;SDS011;71851;49.092;18.918;2024-03-08T01:02:54;23.70;;;11.80;;
82248;SDS011;71851;49.092;18.918;2024-03-08T01:05:54;20.60;;;10.50;;
82248;SDS011;71851;49.092;18.918;2024-03-08T01:08:54;18.08;;;10.50;;
82248;SDS011;71851;49.092;18.918;2024-03-08T01:11:55;20.23;;;9.95;;
82248;SDS011;71851;49.092;18.918;2024-03-08T01:14:55;19.45;;;10.00;;
82248;SDS011;71851;49.092;18.918;2024-03-08T01:20:58;19.50;;;9.48;;
82248;SDS011;71851;49.092;18.918;2024-03-08T01:23:59;19.38;;;8.95;;
82248;SDS011;71851;49.092;18.918;2024-03-08T01:26:59;18.58;;;9.25;;
82248;SDS011;71851;49.092;18.918;2024-03-08T01:30:00;16.65;;;8.70;;
82248;SDS011;71851;49.092;18.918;2024-03-08T01:33:01;15.90;;;9.43;;
82248;SDS011;71851;49.092;18.918;2024-03-08T01:36:01;17.08;;;9.48;;
82248;SDS011;71851;49.092;18.918;2024-03-08T01:39:02;19.02;;;9.25;;
82248;SDS011;71851;49.092;18.918;2024-03-08T01:42:07;25.95;;;10.73;;
82248;SDS011;71851;49.092;18.918;2024-03-08T01:45:08;19.20;;;9.82;;
82248;SDS011;71851;49.092;18.918;2024-03-08T01:48:09;19.23;;;10.02;;
82248;SDS011;71851;49.092;18.918;2024-03-08T01:51:10;23.08;;;9.95;;
82248;SDS011;71851;49.092;18.918;2024-03-08T01:54:12;24.27;;;11.55;;
82248;SDS011;71851;49.092;18.918;2024-03-08T01:57:14;20.33;;;9.60;;
82248;SDS011;71851;49.092;18.918;2024-03-08T02:00:15;19.27;;;9.40;;
82248;SDS011;71851;49.092;18.918;2024-03-08T02:03:16;17.38;;;9.20;;
82248;SDS011;71851;49.092;18.918;2024-03-08T02:06:17;16.85;;;9.13;;
82248;SDS011;71851;49.092;18.918;2024-03-08T02:09:17;16.48;;;9.73;;
82248;SDS011;71851;49.092;18.918;2024-03-08T02:12:18;19.67;;;8.82;;
82248;SDS011;71851;49.092;18.918;2024-03-08T02:15:20;18.58;;;8.40;;
82248;SDS011;71851;49.092;18.918;2024-03-08T02:18:22;19.10;;;9.25;;
82248;SDS011;71851;49.092;18.918;2024-03-08T02:21:23;17.50;;;8.80;;
82248;SDS011;71851;49.092;18.918;2024-03-08T02:24:24;17.15;;;9.00;;
82248;SDS011;71851;49.092;18.918;2024-03-08T02:27:25;16.65;;;8.40;;
82248;SDS011;71851;49.092;18.918;2024-03-08T02:30:26;17.40;;;9.30;;
82248;SDS011;71851;49.092;18.918;2024-03-08T02:33:31;19.60;;;9.73;;
82248;SDS011;71851;49.092;18.918;2024-03-08T02:36:32;19.45;;;8.82;;
82248;SDS011;71851;49.092;18.918;2024-03-08T02:39:35;16.63;;;9.27;;
82248;SDS011;71851;49.092;18.918;2024-03-08T02:42:35;16.20;;;8.65;;
82248;SDS011;71851;49.092;18.918;2024-03-08T02:45:36;17.92;;;8.85;;
82248;SDS011;71851;49.092;18.918;2024-03-08T02:48:36;18.50;;;8.75;;
82248;SDS011;71851;49.092;18.918;2024-03-08T02:51:37;17.52;;;9.18;;
82248;SDS011;71851;49.092;18.918;2024-03-08T02:54:37;19.80;;;8.75;;
82248;SDS011;71851;49.092;18.918;2024-03-08T02:57:38;16.70;;;8.45;;
82248;SDS011;71851;49.092;18.918;2024-03-08T03:00:39;17.08;;;8.75;;
82248;SDS011;71851;49.092;18.918;2024-03-08T03:03:39;18.65;;;8.60;;
82248;SDS011;71851;49.092;18.918;2024-03-08T03:06:40;19.02;;;9.00;;
82248;SDS011;71851;49.092;18.918;2024-03-08T03:09:41;18.88;;;8.23;;
82248;SDS011;71851;49.092;18.918;2024-03-08T03:12:42;19.35;;;8.77;;
82248;SDS011;71851;49.092;18.918;2024-03-08T03:15:42;20.13;;;10.05;;
82248;SDS011;71851;49.092;18.918;2024-03-08T03:18:43;18.25;;;8.60;;
82248;SDS011;71851;49.092;18.918;2024-03-08T03:21:45;17.92;;;9.02;;
82248;SDS011;71851;49.092;18.918;2024-03-08T03:24:46;19.13;;;8.85;;
82248;SDS011;71851;49.092;18.918;2024-03-08T03:27:48;18.27;;;9.23;;
82248;SDS011;71851;49.092;18.918;2024-03-08T03:30:49;17.58;;;8.80;;
82248;SDS011;71851;49.092;18.918;2024-03-08T03:33:50;20.90;;;9.32;;
82248;SDS011;71851;49.092;18.918;2024-03-08T03:36:53;16.60;;;9.80;;
82248;SDS011;71851;49.092;18.918;2024-03-08T03:39:55;16.88;;;8.88;;
82248;SDS011;71851;49.092;18.918;2024-03-08T03:42:57;19.15;;;10.23;;
82248;SDS011;71851;49.092;18.918;2024-03-08T03:45:58;19.92;;;9.48;;
82248;SDS011;71851;49.092;18.918;2024-03-08T03:48:58;17.05;;;9.15;;
82248;SDS011;71851;49.092;18.918;2024-03-08T03:51:59;19.20;;;9.82;;
82248;SDS011;71851;49.092;18.918;2024-03-08T03:55:00;18.20;;;9.68;;
82248;SDS011;71851;49.092;18.918;2024-03-08T03:58:00;17.77;;;8.65;;
82248;SDS011;71851;49.092;18.918;2024-03-08T04:01:04;17.60;;;8.73;;
82248;SDS011;71851;49.092;18.918;2024-03-08T04:04:04;19.98;;;9.45;;
82248;SDS011;71851;49.092;18.918;2024-03-08T04:07:05;19.25;;;8.93;;
82248;SDS011;71851;49.092;18.918;2024-03-08T04:10:06;19.35;;;9.45;;
82248;SDS011;71851;49.092;18.918;2024-03-08T04:13:09;18.75;;;9.23;;
82248;SDS011;71851;49.092;18.918;2024-03-08T04:16:10;14.85;;;8.35;;
82248;SDS011;71851;49.092;18.918;2024-03-08T04:19:11;19.27;;;8.65;;
82248;SDS011;71851;49.092;18.918;2024-03-08T04:22:12;16.25;;;8.68;;
82248;SDS011;71851;49.092;18.918;2024-03-08T04:25:12;15.15;;;8.07;;
82248;SDS011;71851;49.092;18.918;2024-03-08T04:28:12;18.05;;;8.77;;
82248;SDS011;71851;49.092;18.918;2024-03-08T04:31:13;15.68;;;8.30;;
82248;SDS011;71851;49.092;18.918;2024-03-08T04:34:13;16.50;;;8.75;;
82248;SDS011;71851;49.092;18.918;2024-03-08T04:37:14;18.95;;;8.95;;
82248;SDS011;71851;49.092;18.918;2024-03-08T04:40:16;15.60;;;8.50;;
82248;SDS011;71851;49.092;18.918;2024-03-08T04:43:18;18.60;;;9.63;;
82248;SDS011;71851;49.092;18.918;2024-03-08T04:46:20;15.57;;;8.43;;
82248;SDS011;71851;49.092;18.918;2024-03-08T04:49:21;16.98;;;8.35;;
82248;SDS011;71851;49.092;18.918;2024-03-08T04:52:22;19.35;;;8.48;;
82248;SDS011;71851;49.092;18.918;2024-03-08T04:55:23;17.17;;;8.63;;
82248;SDS011;71851;49.092;18.918;2024-03-08T04:58:25;14.98;;;8.13;;
82248;SDS011;71851;49.092;18.918;2024-03-08T05:01:25;16.73;;;9.80;;
82248;SDS011;71851;49.092;18.918;2024-03-08T05:04:26;17.48;;;8.35;;
82248;SDS011;71851;49.092;18.918;2024-03-08T05:07:26;18.17;;;10.15;;
82248;SDS011;71851;49.092;18.918;2024-03-08T05:10:27;19.10;;;10.75;;
82248;SDS011;71851;49.092;18.918;2024-03-08T05:13:28;16.67;;;8.88;;
82248;SDS011;71851;49.092;18.918;2024-03-08T05:16:29;19.02;;;9.52;;
82248;SDS011;71851;49.092;18.918;2024-03-08T05:19:29;17.55;;;8.40;;
82248;SDS011;71851;49.092;18.918;2024-03-08T05:22:30;20.42;;;9.57;;
82248;SDS011;71851;49.092;18.918;2024-03-08T05:25:30;17.92;;;8.70;;
82248;SDS011;71851;49.092;18.918;2024-03-08T05:28:31;15.38;;;8.45;;
82248;SDS011;71851;49.092;18.918;2024-03-08T05:31:47;19.05;;;8.90;;
82248;SDS011;71851;49.092;18.918;2024-03-08T05:34:49;19.75;;;9.23;;
82248;SDS011;71851;49.092;18.918;2024-03-08T05:37:49;22.15;;;10.35;;
82248;SDS011;71851;49.092;18.918;2024-03-08T05:40:49;18.35;;;9.43;;
82248;SDS011;71851;49.092;18.918;2024-03-08T05:43:52;16.58;;;9.00;;
82248;SDS011;71851;49.092;18.918;2024-03-08T05:46:54;18.02;;;9.10;;
82248;SDS011;71851;49.092;18.918;2024-03-08T05:49:54;17.20;;;9.95;;
82248;SDS011;71851;49.092;18.918;2024-03-08T05:52:55;20.60;;;9.43;;
82248;SDS011;71851;49.092;18.918;2024-03-08T05:55:55;17.40;;;9.23;;
82248;SDS011;71851;49.092;18.918;2024-03-08T05:58:56;18.02;;;9.55;;
82248;SDS011;71851;49.092;18.918;2024-03-08T06:01:58;19.40;;;9.38;;
82248;SDS011;71851;49.092;18.918;2024-03-08T06:04:59;18.75;;;9.65;;
82248;SDS011;71851;49.092;18.918;2024-03-08T06:08:02;17.58;;;9.25;;
82248;SDS011;71851;49.092;18.918;2024-03-08T06:11:02;18.65;;;10.07;;
82248;SDS011;71851;49.092;18.918;2024-03-08T06:14:03;18.35;;;8.98;;
82248;SDS011;71851;49.092;18.918;2024-03-08T06:17:06;18.65;;;9.57;;
82248;SDS011;71851;49.092;18.918;2024-03-08T06:20:07;18.67;;;9.80;;
82248;SDS011;71851;49.092;18.918;2024-03-08T06:23:12;17.70;;;9.45;;
82248;SDS011;71851;49.092;18.918;2024-03-08T06:26:12;21.25;;;10.15;;
82248;SDS011;71851;49.092;18.918;2024-03-08T06:29:13;19.10;;;9.70;;
82248;SDS011;71851;49.092;18.918;2024-03-08T06:32:16;19.63;;;10.52;;
82248;SDS011;71851;49.092;18.918;2024-03-08T06:35:16;15.40;;;9.30;;
82248;SDS011;71851;49.092;18.918;2024-03-08T06:38:17;16.38;;;9.43;;
82248;SDS011;71851;49.092;18.918;2024-03-08T06:41:18;18.83;;;9.77;;
82248;SDS011;71851;49.092;18.918;2024-03-08T06:44:18;17.30;;;9.68;;
82248;SDS011;71851;49.092;18.918;2024-03-08T06:47:21;20.13;;;10.75;;
82248;SDS011;71851;49.092;18.918;2024-03-08T06:50:25;16.23;;;9.45;;
82248;SDS011;71851;49.092;18.918;2024-03-08T06:53:26;18.45;;;10.40;;
82248;SDS011;71851;49.092;18.918;2024-03-08T06:56:26;18.15;;;9.63;;
82248;SDS011;71851;49.092;18.918;2024-03-08T06:59:26;17.23;;;10.98;;
82248;SDS011;71851;49.092;18.918;2024-03-08T07:02:27;19.40;;;12.45;;
82248;SDS011;71851;49.092;18.918;2024-03-08T07:05:28;20.45;;;12.07;;
82248;SDS011;71851;49.092;18.918;2024-03-08T07:08:29;19.60;;;11.32;;
82248;SDS011;71851;49.092;18.918;2024-03-08T07:11:30;19.90;;;12.07;;
82248;SDS011;71851;49.092;18.918;2024-03-08T07:14:30;17.05;;;13.27;;
82248;SDS011;71851;49.092;18.918;2024-03-08T07:17:33;17.58;;;12.25;;
82248;SDS011;71851;49.092;18.918;2024-03-08T07:20:35;16.70;;;11.88;;
82248;SDS011;71851;49.092;18.918;2024-03-08T07:23:37;19.30;;;12.82;;
82248;SDS011;71851;49.092;18.918;2024-03-08T07:26:46;16.42;;;12.55;;
82248;SDS011;71851;49.092;18.918;2024-03-08T07:29:49;16.95;;;12.48;;
82248;SDS011;71851;49.092;18.918;2024-03-08T07:32:50;18.05;;;14.48;;
82248;SDS011;71851;49.092;18.918;2024-03-08T07:35:50;16.75;;;12.40;;
82248;SDS011;71851;49.092;18.918;2024-03-08T07:38:51;17.15;;;12.95;;
82248;SDS011;71851;49.092;18.918;2024-03-08T07:41:51;19.73;;;12.48;;
82248;SDS011;71851;49.092;18.918;2024-03-08T07:44:52;18.92;;;13.05;;
82248;SDS011;71851;49.092;18.918;2024-03-08T07:47:53;17.35;;;13.25;;
82248;SDS011;71851;49.092;18.918;2024-03-08T07:50:54;18.05;;;12.77;;
82248;SDS011;71851;49.092;18.918;2024-03-08T07:53:54;16.88;;;14.13;;
82248;SDS011;71851;49.092;18.918;2024-03-08T07:56:55;18.13;;;14.93;;
82248;SDS011;71851;49.092;18.918;2024-03-08T07:59:55;17.17;;;12.88;;
82248;SDS011;71851;49.092;18.918;2024-03-08T08:02:56;18.73;;;16.60;;
82248;SDS011;71851;49.092;18.918;2024-03-08T08:05:56;17.17;;;13.90;;
82248;SDS011;71851;49.092;18.918;2024-03-08T08:08:57;17.63;;;14.52;;
82248;SDS011;71851;49.092;18.918;2024-03-08T08:11:57;16.52;;;14.02;;
82248;SDS011;71851;49.092;18.918;2024-03-08T08:14:58;16.70;;;14.77;;
82248;SDS011;71851;49.092;18.918;2024-03-08T08:17:58;17.02;;;14.38;;
82248;SDS011;71851;49.092;18.918;2024-03-08T08:20:59;18.83;;;16.90;;
82248;SDS011;71851;49.092;18.918;2024-03-08T08:24:00;16.63;;;14.10;;
82248;SDS011;71851;49.092;18.918;2024-03-08T08:27:03;15.75;;;13.40;;
82248;SDS011;71851;49.092;18.918;2024-03-08T08:30:04;18.88;;;14.27;;
82248;SDS011;71851;49.092;18.918;2024-03-08T08:33:08;16.33;;;13.63;;
82248;SDS011;71851;49.092;18.918;2024-03-08T08:36:08;15.85;;;13.85;;
82248;SDS011;71851;49.092;18.918;2024-03-08T08:39:10;15.93;;;14.27;;
82248;SDS011;71851;49.092;18.918;2024-03-08T08:42:13;16.60;;;12.85;;
82248;SDS011;71851;49.092;18.918;2024-03-08T08:45:14;16.52;;;14.00;;
82248;SDS011;71851;49.092;18.918;2024-03-08T08:48:17;17.90;;;15.85;;
82248;SDS011;71851;49.092;18.918;2024-03-08T08:51:17;15.13;;;13.55;;
82248;SDS011;71851;49.092;18.918;2024-03-08T08:57:20;15.00;;;13.40;;
82248;SDS011;71851;49.092;18.918;2024-03-08T09:00:21;14.82;;;12.68;;
82248;SDS011;71851;49.092;18.918;2024-03-08T09:03:24;14.93;;;13.35;;
82248;SDS011;71851;49.092;18.918;2024-03-08T09:06:25;13.88;;;12.32;;
82248;SDS011;71851;49.092;18.918;2024-03-08T09:09:25;15.18;;;13.60;;
82248;SDS011;71851;49.092;18.918;2024-03-08T09:12:26;14.77;;;12.73;;
82248;SDS011;71851;49.092;18.918;2024-03-08T09:15:27;15.32;;;13.00;;
82248;SDS011;71851;49.092;18.918;2024-03-08T09:21:29;15.85;;;12.88;;
82248;SDS011;71851;49.092;18.918;2024-03-08T09:24:30;15.27;;;13.68;;
82248;SDS011;71851;49.092;18.918;2024-03-08T09:27:31;14.48;;;12.93;;
82248;SDS011;71851;49.092;18.918;2024-03-08T09:30:31;14.38;;;12.95;;
82248;SDS011;71851;49.092;18.918;2024-03-08T09:33:32;16.08;;;14.38;;
82248;SDS011;71851;49.092;18.918;2024-03-08T09:36:32;15.00;;;13.15;;
82248;SDS011;71851;49.092;18.918;2024-03-08T09:39:32;16.15;;;14.48;;
82248;SDS011;71851;49.092;18.918;2024-03-08T09:42:33;14.57;;;13.10;;
82248;SDS011;71851;49.092;18.918;2024-03-08T09:45:35;16.13;;;14.43;;
82248;SDS011;71851;49.092;18.918;2024-03-08T09:48:41;14.88;;;13.38;;
82248;SDS011;71851;49.092;18.918;2024-03-08T09:54:43;16.42;;;14.88;;
82248;SDS011;71851;49.092;18.918;2024-03-08T09:57:44;16.73;;;13.07;;
82248;SDS011;71851;49.092;18.918;2024-03-08T10:01:07;14.48;;;12.98;;
82248;SDS011;71851;49.092;18.918;2024-03-08T10:04:08;15.40;;;13.80;;
82248;SDS011;71851;49.092;18.918;2024-03-08T10:07:10;13.65;;;12.30;;
82248;SDS011;71851;49.092;18.918;2024-03-08T10:10:11;13.98;;;12.60;;
82248;SDS011;71851;49.092;18.918;2024-03-08T10:13:12;16.30;;;12.27;;
82248;SDS011;71851;49.092;18.918;2024-03-08T10:16:14;14.95;;;12.95;;
82248;SDS011;71851;49.092;18.918;2024-03-08T10:19:14;13.00;;;11.60;;
82248;SDS011;71851;49.092;18.918;2024-03-08T10:22:16;14.73;;;13.23;;
82248;SDS011;71851;49.092;18.918;2024-03-08T10:25:18;13.57;;;12.18;;
82248;SDS011;71851;49.092;18.918;2024-03-08T10:28:19;13.63;;;11.90;;
82248;SDS011;71851;49.092;18.918;2024-03-08T10:31:19;13.68;;;12.23;;
82248;SDS011;71851;49.092;18.918;2024-03-08T10:34:20;14.10;;;11.57;;
82248;SDS011;71851;49.092;18.918;2024-03-08T10:37:23;13.20;;;12.00;;
82248;SDS011;71851;49.092;18.918;2024-03-08T10:40:25;12.63;;;11.35;;
82248;SDS011;71851;49.092;18.918;2024-03-08T10:43:27;13.15;;;11.95;;
82248;SDS011;71851;49.092;18.918;2024-03-08T10:50:17;14.55;;;12.60;;
82248;SDS011;71851;49.092;18.918;2024-03-08T10:53:21;12.00;;;10.57;;
82248;SDS011;71851;49.092;18.918;2024-03-08T10:56:24;13.90;;;12.45;;
82248;SDS011;71851;49.092;18.918;2024-03-08T10:59:27;11.00;;;10.00;;
82248;SDS011;71851;49.092;18.918;2024-03-08T11:02:28;11.27;;;10.27;;
82248;SDS011;71851;49.092;18.918;2024-03-08T11:05:31;12.15;;;10.88;;
82248;SDS011;71851;49.092;18.918;2024-03-08T11:08:38;11.23;;;10.13;;
82248;SDS011;71851;49.092;18.918;2024-03-08T11:11:39;11.50;;;10.38;;
82248;SDS011;71851;49.092;18.918;2024-03-08T11:14:43;11.43;;;9.55;;
82248;SDS011;71851;49.092;18.918;2024-03-08T11:17:45;11.10;;;10.10;;
82248;SDS011;71851;49.092;18.918;2024-03-08T11:20:48;10.38;;;9.27;;
82248;SDS011;71851;49.092;18.918;2024-03-08T11:27:19;10.25;;;8.90;;
82248;SDS011;71851;49.092;18.918;2024-03-08T11:30:21;9.60;;;8.60;;
82248;SDS011;71851;49.092;18.918;2024-03-08T11:33:24;10.90;;;9.82;;
82248;SDS011;71851;49.092;18.918;2024-03-08T11:36:28;11.07;;;9.60;;
82248;SDS011;71851;49.092;18.918;2024-03-08T11:39:30;7.60;;;6.90;;
82248;SDS011;71851;49.092;18.918;2024-03-08T11:42:31;9.35;;;8.45;;
82248;SDS011;71851;49.092;18.918;2024-03-08T11:45:32;11.40;;;9.82;;
82248;SDS011;71851;49.092;18.918;2024-03-08T11:48:41;10.20;;;9.20;;
82248;SDS011;71851;49.092;18.918;2024-03-08T11:51:42;12.60;;;11.38;;
82248;SDS011;71851;49.092;18.918;2024-03-08T11:54:53;13.63;;;12.23;;
82248;SDS011;71851;49.092;18.918;2024-03-08T11:58:01;11.55;;;10.25;;
82248;SDS011;71851;49.092;18.918;2024-03-08T12:01:05;11.38;;;10.13;;
82248;SDS011;71851;49.092;18.918;2024-03-08T12:04:11;13.25;;;11.18;;
82248;SDS011;71851;49.092;18.918;2024-03-08T12:07:12;12.70;;;11.40;;
82248;SDS011;71851;49.092;18.918;2024-03-08T12:10:18;14.38;;;12.70;;
82248;SDS011;71851;49.092;18.918;2024-03-08T12:13:19;12.85;;;9.77;;
82248;SDS011;71851;49.092;18.918;2024-03-08T12:16:20;11.07;;;9.48;;
82248;SDS011;71851;49.092;18.918;2024-03-08T12:19:23;12.98;;;10.98;;
82248;SDS011;71851;49.092;18.918;2024-03-08T12:22:27;8.27;;;7.38;;
82248;SDS011;71851;49.092;18.918;2024-03-08T12:25:31;9.02;;;8.13;;
82248;SDS011;71851;49.092;18.918;2024-03-08T12:28:33;12.52;;;11.13;;
82248;SDS011;71851;49.092;18.918;2024-03-08T12:31:36;11.85;;;9.57;;
82248;SDS011;71851;49.092;18.918;2024-03-08T12:34:36;8.80;;;8.00;;
82248;SDS011;71851;49.092;18.918;2024-03-08T12:37:37;10.93;;;8.73;;
82248;SDS011;71851;49.092;18.918;2024-03-08T12:40:38;10.05;;;8.45;;
82248;SDS011;71851;49.092;18.918;2024-03-08T12:43:42;9.43;;;8.32;;
82248;SDS011;71851;49.092;18.918;2024-03-08T12:46:43;8.48;;;7.53;;
82248;SDS011;71851;49.092;18.918;2024-03-08T12:49:45;8.95;;;7.90;;
82248;SDS011;71851;49.092;18.918;2024-03-08T12:52:45;9.07;;;6.90;;
82248;SDS011;71851;49.092;18.918;2024-03-08T12:55:46;9.27;;;7.15;;
82248;SDS011;71851;49.092;18.918;2024-03-08T12:58:46;8.38;;;6.72;;
82248;SDS011;71851;49.092;18.918;2024-03-08T13:01:47;9.88;;;7.40;;
82248;SDS011;71851;49.092;18.918;2024-03-08T13:04:49;8.65;;;7.07;;
82248;SDS011;71851;49.092;18.918;2024-03-08T13:07:55;8.60;;;6.00;;
82248;SDS011;71851;49.092;18.918;2024-03-08T13:10:57;9.35;;;7.43;;
82248;SDS011;71851;49.092;18.918;2024-03-08T13:13:57;9.75;;;6.10;;
82248;SDS011;71851;49.092;18.918;2024-03-08T13:16:59;8.52;;;5.65;;
82248;SDS011;71851;49.092;18.918;2024-03-08T13:20:00;8.45;;;5.95;;
82248;SDS011;71851;49.092;18.918;2024-03-08T13:23:00;9.23;;;6.20;;
82248;SDS011;71851;49.092;18.918;2024-03-08T13:26:01;8.90;;;6.15;;
82248;SDS011;71851;49.092;18.918;2024-03-08T13:29:02;9.43;;;6.00;;
82248;SDS011;71851;49.092;18.918;2024-03-08T13:32:03;8.00;;;5.93;;
82248;SDS011;71851;49.092;18.918;2024-03-08T13:35:03;8.25;;;5.53;;
82248;SDS011;71851;49.092;18.918;2024-03-08T13:38:11;8.55;;;6.15;;
82248;SDS011;71851;49.092;18.918;2024-03-08T13:44:17;13.18;;;7.60;;
82248;SDS011;71851;49.092;18.918;2024-03-08T13:47:17;10.40;;;6.93;;
82248;SDS011;71851;49.092;18.918;2024-03-08T13:50:18;9.07;;;6.53;;
82248;SDS011;71851;49.092;18.918;2024-03-08T13:53:21;8.77;;;5.65;;
82248;SDS011;71851;49.092;18.918;2024-03-08T13:56:22;10.05;;;6.50;;
82248;SDS011;71851;49.092;18.918;2024-03-08T13:59:22;8.25;;;5.45;;
82248;SDS011;71851;49.092;18.918;2024-03-08T14:02:22;8.80;;;5.93;;
82248;SDS011;71851;49.092;18.918;2024-03-08T14:05:27;7.18;;;5.22;;
82248;SDS011;71851;49.092;18.918;2024-03-08T14:08:28;8.55;;;5.32;;
82248;SDS011;71851;49.092;18.918;2024-03-08T14:11:28;9.18;;;6.30;;
82248;SDS011;71851;49.092;18.918;2024-03-08T14:14:29;9.02;;;5.88;;
82248;SDS011;71851;49.092;18.918;2024-03-08T14:17:29;8.05;;;5.95;;
82248;SDS011;71851;49.092;18.918;2024-03-08T14:20:31;7.45;;;5.15;;
82248;SDS011;71851;49.092;18.918;2024-03-08T14:23:33;7.75;;;4.80;;
82248;SDS011;71851;49.092;18.918;2024-03-08T14:26:33;7.13;;;4.25;;
82248;SDS011;71851;49.092;18.918;2024-03-08T14:29:34;9.55;;;5.85;;
82248;SDS011;71851;49.092;18.918;2024-03-08T14:32:34;8.18;;;5.18;;
82248;SDS011;71851;49.092;18.918;2024-03-08T14:35:40;7.38;;;4.70;;
82248;SDS011;71851;49.092;18.918;2024-03-08T14:38:41;10.43;;;5.63;;
82248;SDS011;71851;49.092;18.918;2024-03-08T14:41:42;7.07;;;4.20;;
82248;SDS011;71851;49.092;18.918;2024-03-08T14:44:43;6.75;;;5.05;;
82248;SDS011;71851;49.092;18.918;2024-03-08T14:47:48;8.82;;;5.53;;
82248;SDS011;71851;49.092;18.918;2024-03-08T14:50:50;8.38;;;5.18;;
82248;SDS011;71851;49.092;18.918;2024-03-08T14:53:50;6.35;;;3.42;;
82248;SDS011;71851;49.092;18.918;2024-03-08T14:56:51;7.15;;;4.85;;
82248;SDS011;71851;49.092;18.918;2024-03-08T14:59:52;7.90;;;4.72;;
82248;SDS011;71851;49.092;18.918;2024-03-08T15:02:53;8.13;;;4.65;;
82248;SDS011;71851;49.092;18.918;2024-03-08T15:05:54;7.50;;;4.35;;
82248;SDS011;71851;49.092;18.918;2024-03-08T15:08:55;6.28;;;4.53;;
82248;SDS011;71851;49.092;18.918;2024-03-08T15:11:57;8.75;;;5.85;;
82248;SDS011;71851;49.092;18.918;2024-03-08T15:14:58;7.43;;;4.65;;
82248;SDS011;71851;49.092;18.918;2024-03-08T15:17:58;6.70;;;5.05;;
82248;SDS011;71851;49.092;18.918;2024-03-08T15:20:59;7.13;;;4.80;;
82248;SDS011;71851;49.092;18.918;2024-03-08T15:23:59;6.22;;;4.40;;
82248;SDS011;71851;49.092;18.918;2024-03-08T15:27:04;6.25;;;4.22;;
82248;SDS011;71851;49.092;18.918;2024-03-08T15:30:05;6.57;;;4.70;;
82248;SDS011;71851;49.092;18.918;2024-03-08T15:36:15;8.20;;;5.00;;
82248;SDS011;71851;49.092;18.918;2024-03-08T15:39:17;6.72;;;4.78;;
82248;SDS011;71851;49.092;18.918;2024-03-08T15:42:20;5.00;;;4.50;;
82248;SDS011;71851;49.092;18.918;2024-03-08T15:45:23;5.53;;;4.22;;
82248;SDS011;71851;49.092;18.918;2024-03-08T15:48:23;7.82;;;4.75;;
82248;SDS011;71851;49.092;18.918;2024-03-08T15:51:25;6.05;;;4.35;;
82248;SDS011;71851;49.092;18.918;2024-03-08T15:54:26;7.57;;;4.47;;
82248;SDS011;71851;49.092;18.918;2024-03-08T15:57:26;6.03;;;4.22;;
82248;SDS011;71851;49.092;18.918;2024-03-08T16:00:27;4.97;;;3.33;;
82248;SDS011;71851;49.092;18.918;2024-03-08T16:03:34;7.35;;;4.40;;
82248;SDS011;71851;49.092;18.918;2024-03-08T16:06:34;6.45;;;4.38;;
82248;SDS011;71851;49.092;18.918;2024-03-08T16:09:37;9.65;;;5.78;;
82248;SDS011;71851;49.092;18.918;2024-03-08T16:12:38;6.43;;;4.22;;
82248;SDS011;71851;49.092;18.918;2024-03-08T16:15:39;6.40;;;4.53;;
82248;SDS011;71851;49.092;18.918;2024-03-08T16:18:40;5.22;;;3.22;;
82248;SDS011;71851;49.092;18.918;2024-03-08T16:21:41;5.47;;;3.75;;
82248;SDS011;71851;49.092;18.918;2024-03-08T16:24:43;7.35;;;3.85;;
82248;SDS011;71851;49.092;18.918;2024-03-08T16:27:43;6.25;;;4.90;;
82248;SDS011;71851;49.092;18.918;2024-03-08T16:30:47;8.70;;;4.30;;
82248;SDS011;71851;49.092;18.918;2024-03-08T16:33:54;6.10;;;3.85;;
82248;SDS011;71851;49.092;18.918;2024-03-08T16:36:54;6.15;;;3.50;;
82248;SDS011;71851;49.092;18.918;2024-03-08T16:39:55;7.13;;;4.20;;
82248;SDS011;71851;49.092;18.918;2024-03-08T16:42:55;6.18;;;3.45;;
82248;SDS011;71851;49.092;18.918;2024-03-08T16:45:56;6.03;;;3.90;;
82248;SDS011;71851;49.092;18.918;2024-03-08T16:48:58;8.85;;;5.35;;
82248;SDS011;71851;49.092;18.918;2024-03-08T16:51:59;5.72;;;3.92;;
82248;SDS011;71851;49.092;18.918;2024-03-08T16:54:59;6.68;;;5.13;;
82248;SDS011;71851;49.092;18.918;2024-03-08T16:58:00;7.82;;;5.18;;
82248;SDS011;71851;49.092;18.918;2024-03-08T17:01:01;7.25;;;4.72;;
82248;SDS011;71851;49.092;18.918;2024-03-08T17:04:02;8.18;;;5.50;;
82248;SDS011;71851;49.092;18.918;2024-03-08T17:07:04;8.10;;;5.32;;
82248;SDS011;71851;49.092;18.918;2024-03-08T17:10:06;10.07;;;5.55;;
82248;SDS011;71851;49.092;18.918;2024-03-08T17:13:14;11.43;;;6.18;;
82248;SDS011;71851;49.092;18.918;2024-03-08T17:16:17;13.18;;;6.38;;
82248;SDS011;71851;49.092;18.918;2024-03-08T17:19:19;11.40;;;6.13;;
82248;SDS011;71851;49.092;18.918;2024-03-08T17:22:22;11.00;;;5.90;;
82248;SDS011;71851;49.092;18.918;2024-03-08T17:25:25;13.93;;;7.40;;
82248;SDS011;71851;49.092;18.918;2024-03-08T17:28:26;11.32;;;6.50;;
82248;SDS011;71851;49.092;18.918;2024-03-08T17:31:27;13.40;;;7.35;;
82248;SDS011;71851;49.092;18.918;2024-03-08T17:34:28;13.10;;;8.13;;
82248;SDS011;71851;49.092;18.918;2024-03-08T17:37:29;14.15;;;8.63;;
82248;SDS011;71851;49.092;18.918;2024-03-08T17:40:30;12.80;;;7.97;;
82248;SDS011;71851;49.092;18.918;2024-03-08T17:43:30;11.88;;;6.70;;
82248;SDS011;71851;49.092;18.918;2024-03-08T17:46:31;16.77;;;8.85;;
82248;SDS011;71851;49.092;18.918;2024-03-08T17:49:33;13.60;;;7.75;;
82248;SDS011;71851;49.092;18.918;2024-03-08T17:52:35;12.43;;;8.05;;
82248;SDS011;71851;49.092;18.918;2024-03-08T17:55:38;11.60;;;7.75;;
82248;SDS011;71851;49.092;18.918;2024-03-08T17:58:41;13.45;;;8.27;;
82248;SDS011;71851;49.092;18.918;2024-03-08T18:01:41;12.20;;;7.38;;
82248;SDS011;71851;49.092;18.918;2024-03-08T18:04:43;12.90;;;7.10;;
82248;SDS011;71851;49.092;18.918;2024-03-08T18:07:45;13.15;;;7.90;;